Time;durP1;ratioP1;P1;durP2;ratioP2;P2;SDS_P1;SDS_P2;PMS_P1;PMS_P2;Temp;Humidity;BMP_temperature;BMP_pressure;BME280_temperature;BME280_humidity;BME280_pressure;Samples;Min_cycle;Max_cycle;Signal;HPM_P1;HPM_P2
2021/08/19 00:00:38;;;;;;;4.07;3.63;;;19.10;41.20;;;;;;10440188;28;20224;-75
2021/08/19 00:05:42;;;;;;;5.97;3.70;;;19.10;41.80;;;;;;10416553;28;20244;-75
2021/08/19 00:10:45;;;;;;;4.97;3.67;;;19.10;41.40;;;;;;10440169;28;20233;-75
2021/08/19 00:15:50;;;;;;;3.83;3.53;;;19.10;41.60;;;;;;10440605;28;20220;-75
2021/08/19 00:20:54;;;;;;;4.20;3.80;;;19.10;41.90;;;;;;10439799;28;20590;-75
2021/08/19 00:25:57;;;;;;;6.47;3.67;;;19.00;41.70;;;;;;10439702;28;20221;-75
2021/08/19 00:31:02;;;;;;;4.47;3.73;;;19.00;41.70;;;;;;10437766;28;20264;-76
2021/08/19 00:36:05;;;;;;;4.30;3.70;;;19.00;42.30;;;;;;10439565;28;20221;-76
2021/08/19 00:41:08;;;;;;;4.00;3.50;;;19.00;42.00;;;;;;10439372;28;20225;-75
2021/08/19 00:46:33;;;;;;;4.40;4.00;;;19.00;42.10;;;;;;10439203;28;20228;-76
2021/08/19 00:51:38;;;;;;;4.30;3.90;;;19.00;42.80;;;;;;10437363;28;20229;-75
2021/08/19 00:56:41;;;;;;;5.63;3.63;;;19.00;42.40;;;;;;10435246;28;20227;-75
2021/08/19 01:01:46;;;;;;;4.50;3.70;;;19.00;42.20;;;;;;10440386;28;20240;-75
2021/08/19 01:06:49;;;;;;;3.50;3.20;;;19.10;42.80;;;;;;10436837;28;20270;-75
2021/08/19 01:11:53;;;;;;;3.93;3.17;;;19.00;42.30;;;;;;10414163;28;20229;-75
2021/08/19 01:16:57;;;;;;;4.10;3.70;;;19.10;42.40;;;;;;10435333;28;20232;-75
2021/08/19 01:22:01;;;;;;;4.53;3.83;;;19.00;42.80;;;;;;10439346;28;20233;-75
2021/08/19 01:27:04;;;;;;;4.37;3.40;;;19.10;42.50;;;;;;10438247;28;20237;-75
2021/08/19 01:32:10;;;;;;;4.20;3.80;;;19.00;42.70;;;;;;10438595;28;20713;-75
2021/08/19 01:37:14;;;;;;;5.43;3.67;;;19.00;43.20;;;;;;10401198;28;20237;-75
2021/08/19 01:42:17;;;;;;;4.50;3.87;;;19.00;42.80;;;;;;10423546;28;20236;-75
2021/08/19 01:47:23;;;;;;;5.03;3.60;;;19.10;43.00;;;;;;10438297;28;20232;-75
2021/08/19 01:52:26;;;;;;;5.33;4.10;;;19.10;43.40;;;;;;10435582;28;20240;-75
2021/08/19 01:57:29;;;;;;;4.27;3.87;;;19.20;43.00;;;;;;10435845;28;20224;-75
2021/08/19 02:02:34;;;;;;;5.13;3.83;;;19.10;42.90;;;;;;10438706;28;20243;-75
2021/08/19 02:07:38;;;;;;;4.97;3.87;;;19.10;43.50;;;;;;10431995;28;20236;-75
2021/08/19 02:12:41;;;;;;;4.27;3.87;;;19.10;43.20;;;;;;10439424;28;20241;-75
2021/08/19 02:17:45;;;;;;;4.27;3.87;;;19.10;43.00;;;;;;10445597;28;20248;-75
2021/08/19 02:22:49;;;;;;;4.10;3.70;;;19.10;43.80;;;;;;10443240;28;20225;-75
2021/08/19 02:27:52;;;;;;;4.40;3.80;;;19.00;43.40;;;;;;10442429;28;20233;-75
2021/08/19 02:32:57;;;;;;;4.40;3.90;;;19.00;43.40;;;;;;10444917;28;20229;-75
2021/08/19 02:38:06;;;;;;;6.20;4.20;;;19.00;43.90;;;;;;10441385;28;20228;-75
2021/08/19 02:43:09;;;;;;;4.27;3.87;;;19.00;44.10;;;;;;10443451;28;20233;-75
2021/08/19 02:48:14;;;;;;;4.53;3.70;;;19.00;43.40;;;;;;10443240;28;21002;-75
2021/08/19 02:53:17;;;;;;;4.70;4.10;;;19.10;44.00;;;;;;10442897;28;20236;-75
2021/08/19 02:58:20;;;;;;;4.50;3.40;;;19.10;43.60;;;;;;10444165;28;20598;-75
2021/08/19 03:03:24;;;;;;;4.23;3.83;;;19.10;43.60;;;;;;10443944;28;20878;-75
2021/08/19 03:08:28;;;;;;;4.10;3.70;;;19.10;44.10;;;;;;10443591;28;20245;-75
2021/08/19 03:13:31;;;;;;;4.60;4.17;;;19.10;43.80;;;;;;10439885;28;20900;-75
2021/08/19 03:18:36;;;;;;;4.23;3.83;;;19.20;43.80;;;;;;10440596;28;20637;-75
2021/08/19 03:23:39;;;;;;;4.53;3.53;;;19.20;44.20;;;;;;10437960;28;20232;-75
2021/08/19 03:28:43;;;;;;;4.30;3.90;;;19.20;43.80;;;;;;10438428;28;20229;-75
2021/08/19 03:33:47;;;;;;;3.90;3.50;;;19.30;44.00;;;;;;10439905;28;20608;-75
2021/08/19 03:38:50;;;;;;;4.63;4.10;;;19.30;44.30;;;;;;10444424;28;20232;-75
2021/08/19 03:43:53;;;;;;;4.33;3.93;;;19.30;43.90;;;;;;10440351;28;20248;-75
2021/08/19 03:48:59;;;;;;;5.20;4.40;;;19.40;44.00;;;;;;10442397;28;20252;-75
2021/08/19 03:54:02;;;;;;;5.17;3.73;;;19.30;44.30;;;;;;10397687;28;20737;-75
2021/08/19 03:59:06;;;;;;;4.37;3.97;;;19.30;43.80;;;;;;10411202;28;20237;-75
2021/08/19 04:04:10;;;;;;;4.20;3.77;;;19.30;44.00;;;;;;10441960;28;20240;-75
2021/08/19 04:09:13;;;;;;;5.50;4.00;;;19.30;44.30;;;;;;10431442;28;20271;-75
2021/08/19 04:14:17;;;;;;;5.47;3.53;;;19.20;44.00;;;;;;10425419;28;20229;-75
2021/08/19 04:19:21;;;;;;;4.00;3.70;;;19.20;44.20;;;;;;10412706;28;20240;-75
2021/08/19 04:24:24;;;;;;;3.93;3.60;;;19.20;44.60;;;;;;10432212;28;20232;-76
2021/08/19 04:29:27;;;;;;;4.17;3.37;;;19.20;44.30;;;;;;10438845;28;20244;-75
2021/08/19 04:34:32;;;;;;;4.07;3.67;;;19.20;44.30;;;;;;10440162;28;20231;-76
2021/08/19 04:39:35;;;;;;;4.93;4.03;;;19.20;44.90;;;;;;10434819;28;20238;-75
2021/08/19 04:44:39;;;;;;;6.20;4.00;;;19.20;44.40;;;;;;10421168;28;20714;-75
2021/08/19 04:49:43;;;;;;;4.20;3.57;;;19.20;44.50;;;;;;10429316;28;20228;-75
2021/08/19 04:54:46;;;;;;;5.03;3.97;;;19.20;45.00;;;;;;10436513;28;20232;-75
2021/08/19 04:59:49;;;;;;;5.00;3.93;;;19.20;44.80;;;;;;10437771;28;20225;-75
2021/08/19 05:04:54;;;;;;;3.77;3.47;;;19.10;44.80;;;;;;10438245;28;20228;-75
2021/08/19 05:09:57;;;;;;;3.67;3.37;;;19.20;45.40;;;;;;10437985;28;20221;-75
2021/08/19 05:15:00;;;;;;;4.50;3.40;;;19.20;45.10;;;;;;10436636;28;20240;-75
2021/08/19 05:20:06;;;;;;;4.30;3.90;;;19.20;45.10;;;;;;10426998;28;20245;-75
2021/08/19 05:25:10;;;;;;;4.13;3.77;;;19.30;45.90;;;;;;10420926;28;20224;-75
2021/08/19 05:30:13;;;;;;;3.87;3.53;;;19.30;45.20;;;;;;10436419;28;20918;-75
2021/08/19 05:35:18;;;;;;;4.13;3.63;;;19.40;45.30;;;;;;10435733;28;20232;-75
2021/08/19 05:40:21;;;;;;;4.43;3.43;;;19.40;45.80;;;;;;10437732;28;20217;-75
2021/08/19 05:45:24;;;;;;;4.40;3.67;;;19.40;45.40;;;;;;10432438;28;20591;-74
2021/08/19 05:50:29;;;;;;;3.73;3.30;;;19.50;45.60;;;;;;10449166;28;20239;-75
2021/08/19 05:55:32;;;;;;;4.03;3.63;;;19.50;46.10;;;;;;10444021;28;20236;-75
2021/08/19 06:00:35;;;;;;;3.73;3.37;;;19.50;45.60;;;;;;10446219;28;20236;-75
2021/08/19 06:05:40;;;;;;;4.20;3.77;;;19.60;45.60;;;;;;10444415;28;20225;-76
2021/08/19 06:10:44;;;;;;;4.07;3.67;;;19.70;45.80;;;;;;10443781;28;20221;-76
2021/08/19 06:15:47;;;;;;;3.60;3.30;;;19.70;45.80;;;;;;10446015;28;20221;-75
2021/08/19 06:20:52;;;;;;;3.90;2.90;;;19.70;45.50;;;;;;10444571;28;20278;-74
2021/08/19 06:25:55;;;;;;;3.33;3.03;;;19.80;45.50;;;;;;10444369;28;20908;-75
2021/08/19 06:30:58;;;;;;;3.00;2.80;;;19.80;45.20;;;;;;10444070;28;20229;-74
2021/08/19 06:36:03;;;;;;;3.07;2.73;;;19.90;45.30;;;;;;10447448;28;20698;-74
2021/08/19 06:41:06;;;;;;;2.80;2.60;;;20.00;45.40;;;;;;10445183;28;20225;-74
2021/08/19 06:46:10;;;;;;;2.07;1.97;;;20.10;45.10;;;;;;10446633;28;20232;-74
2021/08/19 06:51:14;;;;;;;3.13;2.30;;;20.10;45.10;;;;;;10446449;28;20221;-75
2021/08/19 06:56:17;;;;;;;2.27;2.10;;;20.20;45.20;;;;;;10441612;28;20228;-75
2021/08/19 07:01:21;;;;;;;2.93;2.10;;;20.30;45.30;;;;;;10444393;28;20594;-75
2021/08/19 07:06:25;;;;;;;2.23;2.07;;;20.30;45.10;;;;;;10445151;28;20282;-74
2021/08/19 07:11:29;;;;;;;2.33;2.23;;;20.40;45.20;;;;;;10446949;28;20231;-74
2021/08/19 07:16:32;;;;;;;2.97;2.33;;;20.50;45.00;;;;;;10442863;28;20232;-74
2021/08/19 07:21:37;;;;;;;2.30;2.10;;;20.60;45.00;;;;;;10435795;28;20257;-74
2021/08/19 07:26:40;;;;;;;2.20;2.00;;;20.70;45.10;;;;;;10443770;28;20224;-74
2021/08/19 07:31:43;;;;;;;2.60;2.40;;;20.80;45.60;;;;;;10445396;28;20904;-74
2021/08/19 07:36:48;;;;;;;2.47;2.30;;;20.80;44.60;;;;;;10443164;28;20236;-75
2021/08/19 07:41:51;;;;;;;2.37;2.20;;;20.90;45.40;;;;;;10445230;28;20232;-75
2021/08/19 07:46:54;;;;;;;2.00;1.90;;;20.90;45.40;;;;;;10440954;28;20235;-75
2021/08/19 07:51:59;;;;;;;2.53;2.23;;;21.00;44.60;;;;;;10443388;28;20237;-76
2021/08/19 07:57:03;;;;;;;2.97;2.33;;;21.10;44.50;;;;;;10441314;28;20221;-76
2021/08/19 08:02:06;;;;;;;2.10;2.00;;;21.20;44.40;;;;;;10442883;28;20235;-76
2021/08/19 08:07:11;;;;;;;2.23;2.03;;;21.20;44.30;;;;;;10442582;28;20235;-75
2021/08/19 08:12:21;;;;;;;2.10;1.70;;;21.30;43.90;;;;;;10437425;28;20244;-75
2021/08/19 08:17:25;;;;;;;1.80;1.70;;;21.40;43.50;;;;;;10441469;28;20225;-76
2021/08/19 08:22:29;;;;;;;2.00;1.90;;;21.50;43.60;;;;;;10440396;28;20249;-77
2021/08/19 08:27:34;;;;;;;1.93;1.83;;;21.50;43.50;;;;;;10442024;28;20256;-76
2021/08/19 08:32:42;;;;;;;1.90;1.80;;;21.60;43.20;;;;;;10442019;28;20236;-76
2021/08/19 08:37:46;;;;;;;1.90;1.80;;;21.60;43.00;;;;;;10445388;28;20300;-75
2021/08/19 08:42:50;;;;;;;3.47;2.20;;;21.70;43.30;;;;;;10435738;28;20220;-76
2021/08/19 08:47:55;;;;;;;4.27;3.87;;;21.70;43.50;;;;;;10439382;28;20225;-75
2021/08/19 08:53:00;;;;;;;2.83;2.47;;;21.80;43.70;;;;;;10442910;28;20237;-75
2021/08/19 08:58:04;;;;;;;3.20;3.00;;;21.80;43.50;;;;;;10439109;28;20221;-75
2021/08/19 09:03:08;;;;;;;3.50;3.20;;;21.80;43.20;;;;;;10447551;28;20608;-76
2021/08/19 09:08:18;;;;;;;3.20;2.90;;;21.90;43.10;;;;;;10443681;28;20316;-76
2021/08/19 09:13:24;;;;;;;2.27;2.17;;;21.90;43.00;;;;;;10442132;28;20739;-76
2021/08/19 09:18:32;;;;;;;2.23;2.03;;;22.00;42.40;;;;;;10435834;28;20224;-79
2021/08/19 09:23:38;;;;;;;2.27;2.07;;;22.00;42.00;;;;;;10438604;28;20285;-77
2021/08/19 09:28:42;;;;;;;2.00;1.87;;;22.00;42.10;;;;;;10442987;28;20239;-75
2021/08/19 09:33:46;;;;;;;2.40;1.90;;;22.00;42.50;;;;;;10443034;28;20221;-76
2021/08/19 09:38:51;;;;;;;2.00;1.80;;;22.10;41.90;;;;;;10441568;28;20224;-76
2021/08/19 09:43:55;;;;;;;1.90;1.80;;;22.10;42.20;;;;;;10441648;28;20689;-75
2021/08/19 09:49:00;;;;;;;1.83;1.73;;;22.20;41.70;;;;;;10442253;28;20760;-75
2021/08/19 09:54:04;;;;;;;1.90;1.80;;;22.30;42.80;;;;;;10439451;28;20231;-75
2021/08/19 09:59:21;;;;;;;2.13;2.00;;;22.40;41.90;;;;;;10440222;28;20594;-75
2021/08/19 10:04:26;;;;;;;3.57;1.80;;;22.60;41.00;;;;;;10439754;28;20228;-75
2021/08/19 10:09:31;;;;;;;1.53;1.43;;;22.70;41.50;;;;;;10438472;28;20243;-75
2021/08/19 10:14:34;;;;;;;1.73;1.60;;;22.80;41.30;;;;;;10440480;28;20228;-75
2021/08/19 10:19:41;;;;;;;1.50;1.40;;;22.90;42.00;;;;;;10441643;28;20705;-75
2021/08/19 10:24:50;;;;;;;1.67;1.57;;;23.20;41.20;;;;;;10439424;28;20240;-75
2021/08/19 10:29:59;;;;;;;1.50;1.40;;;23.30;40.80;;;;;;10438062;28;20291;-75
2021/08/19 10:35:09;;;;;;;1.40;1.30;;;23.60;40.90;;;;;;10444760;28;20237;-75
2021/08/19 10:40:35;;;;;;;1.50;1.40;;;23.80;40.10;;;;;;10442210;28;20318;-75
2021/08/19 10:45:42;;;;;;;1.57;1.47;;;23.90;39.90;;;;;;10443472;28;20229;-75
2021/08/19 10:50:46;;;;;;;1.40;1.40;;;24.10;39.30;;;;;;10440889;28;20235;-76
2021/08/19 10:55:53;;;;;;;1.60;1.30;;;24.20;39.80;;;;;;10441926;28;20223;-76
2021/08/19 11:00:59;;;;;;;1.40;1.30;;;24.30;38.40;;;;;;10450913;28;20221;-76
2021/08/19 11:06:06;;;;;;;1.30;1.20;;;24.30;38.70;;;;;;10445088;28;20263;-75
2021/08/19 11:11:13;;;;;;;1.30;1.20;;;24.20;37.80;;;;;;10440832;28;20486;-76
2021/08/19 11:16:16;;;;;;;1.20;1.20;;;24.30;38.10;;;;;;10445056;28;20309;-76
2021/08/19 11:21:19;;;;;;;1.63;1.20;;;24.40;39.00;;;;;;10444912;28;21179;-76
2021/08/19 11:26:24;;;;;;;1.47;1.30;;;24.50;39.10;;;;;;10446689;28;20255;-76
2021/08/19 11:31:27;;;;;;;1.50;1.40;;;24.70;38.10;;;;;;10446124;28;20235;-76
2021/08/19 11:36:31;;;;;;;1.40;1.30;;;24.80;38.20;;;;;;10439611;28;20731;-77
2021/08/19 11:41:36;;;;;;;2.93;1.30;;;24.90;38.00;;;;;;10444872;28;20601;-76
2021/08/19 11:46:39;;;;;;;1.30;1.30;;;24.90;37.10;;;;;;10445376;28;20231;-76
2021/08/19 11:51:45;;;;;;;1.57;1.47;;;25.00;37.50;;;;;;10449101;28;20232;-74
2021/08/19 11:56:49;;;;;;;1.40;1.30;;;25.00;36.50;;;;;;10444496;28;20229;-75
2021/08/19 12:01:55;;;;;;;1.33;1.23;;;25.10;36.80;;;;;;10451783;28;20607;-75
2021/08/19 12:07:00;;;;;;;1.30;1.20;;;25.10;36.40;;;;;;10447014;28;20240;-75
2021/08/19 12:12:07;;;;;;;1.40;1.30;;;25.00;35.20;;;;;;10447082;28;20263;-75
2021/08/19 12:17:10;;;;;;;1.30;1.20;;;25.00;35.00;;;;;;10448105;28;20305;-75
2021/08/19 12:22:13;;;;;;;1.40;1.30;;;24.90;36.50;;;;;;10448699;28;20228;-75
2021/08/19 12:27:20;;;;;;;1.17;1.17;;;24.80;36.60;;;;;;10448124;28;20733;-74
2021/08/19 12:32:24;;;;;;;1.33;1.30;;;24.80;36.20;;;;;;10448329;28;20625;-75
2021/08/19 12:37:29;;;;;;;1.70;1.40;;;24.80;36.50;;;;;;10447972;28;20236;-76
2021/08/19 12:42:35;;;;;;;1.60;1.50;;;24.90;36.70;;;;;;10446786;28;20225;-75
2021/08/19 12:47:40;;;;;;;1.73;1.47;;;24.90;36.50;;;;;;10446928;28;20221;-75
2021/08/19 12:52:44;;;;;;;1.50;1.40;;;24.90;36.40;;;;;;10442486;28;20220;-77
2021/08/19 12:57:59;;;;;;;1.50;1.40;;;24.80;36.30;;;;;;10442092;28;20217;-75
2021/08/19 13:03:04;;;;;;;1.60;1.50;;;24.80;35.60;;;;;;10438951;28;20221;-76
2021/08/19 13:08:07;;;;;;;1.70;1.60;;;24.90;36.10;;;;;;10439358;28;20304;-75
2021/08/19 13:13:13;;;;;;;3.17;1.37;;;24.90;36.00;;;;;;10450046;28;20239;-75
2021/08/19 13:18:16;;;;;;;2.80;1.50;;;24.90;35.70;;;;;;10439119;28;20861;-74
2021/08/19 13:23:19;;;;;;;1.53;1.43;;;24.90;36.10;;;;;;10446868;28;20243;-75
2021/08/19 13:28:25;;;;;;;1.47;1.37;;;24.90;36.20;;;;;;10434941;28;20607;-75
2021/08/19 13:33:28;;;;;;;2.03;1.60;;;25.00;36.00;;;;;;10440440;28;20229;-74
2021/08/19 13:38:32;;;;;;;1.80;1.70;;;25.00;36.00;;;;;;10439368;28;20227;-76
2021/08/19 13:43:36;;;;;;;2.00;1.80;;;25.10;35.40;;;;;;10442707;28;20233;-74
2021/08/19 13:48:40;;;;;;;1.60;1.50;;;25.10;35.40;;;;;;10447962;28;20225;-76
2021/08/19 13:53:44;;;;;;;1.60;1.50;;;25.10;34.70;;;;;;10444983;28;20666;-75
2021/08/19 13:58:48;;;;;;;2.00;1.90;;;25.10;35.50;;;;;;10445951;28;20236;-75
2021/08/19 14:03:52;;;;;;;2.20;2.00;;;25.00;34.40;;;;;;10441249;28;20229;-75
2021/08/19 14:08:55;;;;;;;1.70;1.60;;;25.00;35.10;;;;;;10444778;28;20225;-75
2021/08/19 14:14:00;;;;;;;1.80;1.70;;;24.90;35.40;;;;;;10450109;28;20241;-75
2021/08/19 14:19:04;;;;;;;1.60;1.50;;;25.00;35.70;;;;;;10441042;28;20228;-74
2021/08/19 14:24:07;;;;;;;2.43;1.63;;;25.10;35.70;;;;;;10448013;28;20225;-74
2021/08/19 14:29:12;;;;;;;1.67;1.57;;;25.20;34.80;;;;;;10447653;28;20609;-73
2021/08/19 14:34:15;;;;;;;1.63;1.53;;;25.20;34.40;;;;;;10437311;28;20237;-73
2021/08/19 14:39:19;;;;;;;1.50;1.40;;;25.20;34.80;;;;;;10449693;28;20245;-74
2021/08/19 14:44:23;;;;;;;1.70;1.60;;;25.30;34.60;;;;;;10452946;28;20232;-75
2021/08/19 14:49:26;;;;;;;1.60;1.50;;;25.30;34.10;;;;;;10448677;28;21005;-75
2021/08/19 14:54:30;;;;;;;1.60;1.40;;;25.40;34.00;;;;;;10445350;28;20597;-74
2021/08/19 14:59:35;;;;;;;1.60;1.50;;;25.30;34.30;;;;;;10447882;28;20233;-74
2021/08/19 15:04:38;;;;;;;1.83;1.30;;;25.40;33.60;;;;;;10443714;28;20576;-75
2021/08/19 15:09:42;;;;;;;2.13;1.40;;;25.40;33.80;;;;;;10449756;28;20681;-74
2021/08/19 15:14:46;;;;;;;1.73;1.40;;;25.50;34.10;;;;;;10446494;28;20233;-74
2021/08/19 15:19:50;;;;;;;2.03;1.40;;;25.60;33.40;;;;;;10446338;28;20315;-72
2021/08/19 15:24:55;;;;;;;1.83;1.40;;;25.60;33.60;;;;;;10441208;28;20233;-74
2021/08/19 15:29:59;;;;;;;1.20;1.20;;;25.60;33.30;;;;;;10448620;28;20232;-74
2021/08/19 15:35:03;;;;;;;1.40;1.27;;;25.70;33.10;;;;;;10445946;28;20235;-74
2021/08/19 15:40:08;;;;;;;1.30;1.20;;;25.70;33.50;;;;;;10448087;28;20224;-74
2021/08/19 15:45:13;;;;;;;1.73;1.13;;;25.70;32.50;;;;;;10446584;28;20237;-74
2021/08/19 15:50:17;;;;;;;1.20;1.20;;;25.70;32.00;;;;;;10448490;28;20607;-74
2021/08/19 15:55:20;;;;;;;1.40;1.30;;;25.60;32.10;;;;;;10451142;28;20232;-74
2021/08/19 16:00:25;;;;;;;1.37;1.27;;;25.50;32.50;;;;;;10450901;28;20232;-74
2021/08/19 16:05:28;;;;;;;1.43;1.33;;;25.40;32.40;;;;;;10446968;28;20290;-74
2021/08/19 16:10:32;;;;;;;1.40;1.30;;;25.40;32.60;;;;;;10446566;28;20608;-74
2021/08/19 16:15:39;;;;;;;1.13;1.13;;;25.40;32.70;;;;;;10445227;28;20236;-76
2021/08/19 16:20:42;;;;;;;1.40;1.30;;;25.50;31.60;;;;;;10444054;28;21951;-77
2021/08/19 16:25:45;;;;;;;1.30;1.20;;;25.50;32.30;;;;;;10447962;28;20224;-77
2021/08/19 16:30:50;;;;;;;1.67;1.33;;;25.60;32.20;;;;;;10443003;28;20221;-77
2021/08/19 16:35:55;;;;;;;1.47;1.37;;;25.60;31.60;;;;;;10442157;28;20717;-76
2021/08/19 16:40:59;;;;;;;1.40;1.30;;;25.60;31.90;;;;;;10439169;28;20311;-78
2021/08/19 16:46:05;;;;;;;1.30;1.20;;;25.70;32.20;;;;;;10442599;28;20592;-76
2021/08/19 16:51:09;;;;;;;1.33;1.23;;;25.70;32.20;;;;;;10437748;28;20239;-76
2021/08/19 16:56:12;;;;;;;1.10;1.10;;;25.70;31.80;;;;;;10440971;28;20636;-76
2021/08/19 17:01:16;;;;;;;1.40;1.30;;;25.70;31.80;;;;;;10437789;28;20232;-76
2021/08/19 17:06:20;;;;;;;1.20;1.20;;;25.70;31.60;;;;;;10437295;28;20782;-77
2021/08/19 17:11:23;;;;;;;1.27;1.27;;;25.70;32.10;;;;;;10443177;28;20221;-76
2021/08/19 17:16:28;;;;;;;1.37;1.27;;;25.60;32.60;;;;;;10441843;28;20236;-76
2021/08/19 17:21:32;;;;;;;1.20;1.20;;;25.70;32.80;;;;;;10442299;28;20227;-76
2021/08/19 17:26:35;;;;;;;1.33;1.23;;;25.60;32.80;;;;;;10441963;28;20290;-75
2021/08/19 17:31:43;;;;;;;1.50;1.40;;;25.60;32.90;;;;;;10441136;28;20601;-75
2021/08/19 17:36:46;;;;;;;1.40;1.30;;;25.50;32.70;;;;;;10441089;28;20217;-75
2021/08/19 17:41:50;;;;;;;1.60;1.50;;;25.50;32.90;;;;;;10441201;28;20236;-76
2021/08/19 17:46:54;;;;;;;4.93;1.80;;;25.40;33.20;;;;;;10448526;28;20255;-76
2021/08/19 17:51:57;;;;;;;2.10;1.50;;;25.40;33.30;;;;;;10449296;28;20228;-76
2021/08/19 17:57:01;;;;;;;1.57;1.30;;;25.40;33.60;;;;;;10448562;28;20246;-75
2021/08/19 18:02:06;;;;;;;2.43;1.30;;;25.40;33.70;;;;;;10442763;28;20934;-74
2021/08/19 18:07:09;;;;;;;1.20;1.20;;;25.30;33.80;;;;;;10438835;28;20294;-74
2021/08/19 18:12:13;;;;;;;1.30;1.20;;;25.30;34.00;;;;;;10440263;28;20252;-73
2021/08/19 18:17:17;;;;;;;1.57;1.47;;;25.20;33.50;;;;;;10441378;28;20319;-73
2021/08/19 18:22:21;;;;;;;1.60;1.50;;;25.20;34.20;;;;;;10436108;28;20574;-73
2021/08/19 18:27:25;;;;;;;1.60;1.50;;;25.10;34.30;;;;;;10443984;28;20228;-73
2021/08/19 18:32:30;;;;;;;1.40;1.40;;;25.10;35.00;;;;;;10442975;28;20701;-74
2021/08/19 18:37:33;;;;;;;1.50;1.40;;;25.00;35.20;;;;;;10439455;28;20217;-74
2021/08/19 18:42:37;;;;;;;1.50;1.40;;;24.90;35.00;;;;;;10442627;28;20229;-74
2021/08/19 18:47:42;;;;;;;1.30;1.30;;;24.80;34.90;;;;;;10442175;28;20224;-74
2021/08/19 18:52:45;;;;;;;1.53;1.20;;;24.80;35.30;;;;;;10440132;28;20239;-74
2021/08/19 18:57:49;;;;;;;1.00;0.97;;;24.70;34.90;;;;;;10441930;28;20220;-74
2021/08/19 19:02:53;;;;;;;1.00;1.00;;;24.60;35.30;;;;;;10443836;28;20221;-74
2021/08/19 19:07:58;;;;;;;1.20;1.10;;;24.60;35.70;;;;;;10439907;28;20212;-74
2021/08/19 19:13:02;;;;;;;1.70;1.60;;;24.50;35.40;;;;;;10440276;28;20879;-74
2021/08/19 19:18:07;;;;;;;1.70;1.60;;;24.40;35.30;;;;;;10428887;28;20619;-75
2021/08/19 19:23:11;;;;;;;1.17;1.17;;;24.30;35.80;;;;;;10436068;28;20236;-76
2021/08/19 19:28:14;;;;;;;1.30;1.30;;;24.20;35.80;;;;;;10432776;28;20316;-73
2021/08/19 19:33:20;;;;;;;1.60;1.50;;;24.10;35.90;;;;;;10430238;28;20679;-73
2021/08/19 19:38:23;;;;;;;1.60;1.50;;;24.00;36.50;;;;;;10426321;28;20232;-72
2021/08/19 19:43:29;;;;;;;1.67;1.57;;;23.90;36.10;;;;;;10434159;28;20744;-72
2021/08/19 19:48:33;;;;;;;1.70;1.60;;;23.90;36.20;;;;;;10427561;28;20228;-72
2021/08/19 19:53:36;;;;;;;2.73;2.53;;;23.80;36.70;;;;;;10436159;28;20221;-73
2021/08/19 19:58:40;;;;;;;3.50;2.80;;;23.70;36.40;;;;;;10433495;28;20698;-72
2021/08/19 20:03:58;;;;;;;3.40;3.20;;;23.60;36.60;;;;;;10434948;28;20223;-72
2021/08/19 20:09:02;;;;;;;3.33;3.13;;;23.60;37.10;;;;;;10436135;28;20220;-73
2021/08/19 20:14:05;;;;;;;3.80;3.50;;;23.50;36.90;;;;;;10433751;28;20981;-73
2021/08/19 20:19:10;;;;;;;2.77;2.57;;;23.50;37.00;;;;;;10434465;28;20225;-72
2021/08/19 20:24:13;;;;;;;2.33;1.80;;;23.40;37.30;;;;;;10434102;28;20252;-73
2021/08/19 20:29:16;;;;;;;2.40;1.87;;;23.40;37.40;;;;;;10431693;28;20228;-72
2021/08/19 20:34:22;;;;;;;1.97;1.80;;;23.30;37.30;;;;;;10434033;28;21053;-72
2021/08/19 20:39:25;;;;;;;1.87;1.60;;;23.30;37.70;;;;;;10436159;28;20245;-72
2021/08/19 20:44:28;;;;;;;2.00;1.83;;;23.30;37.60;;;;;;10433990;28;20236;-72
2021/08/19 20:49:33;;;;;;;1.93;1.57;;;23.30;37.70;;;;;;10437749;28;20339;-72
2021/08/19 20:54:36;;;;;;;1.83;1.73;;;23.20;38.00;;;;;;10437191;28;20225;-72
2021/08/19 20:59:39;;;;;;;2.00;1.83;;;23.30;37.90;;;;;;10435247;28;20244;-73
2021/08/19 21:04:47;;;;;;;1.90;1.80;;;23.30;37.90;;;;;;10433670;28;20229;-73
2021/08/19 21:09:50;;;;;;;2.17;1.70;;;23.10;37.70;;;;;;10436348;28;20740;-73
2021/08/19 21:14:55;;;;;;;2.00;1.90;;;23.10;37.60;;;;;;10433456;28;20244;-72
2021/08/19 21:19:59;;;;;;;1.90;1.80;;;23.00;37.70;;;;;;10433845;28;20221;-72
2021/08/19 21:25:02;;;;;;;2.00;1.90;;;22.90;38.70;;;;;;10435881;28;20229;-72
2021/08/19 21:30:08;;;;;;;2.13;2.03;;;22.90;38.40;;;;;;10434484;28;20263;-72
2021/08/19 21:35:15;;;;;;;2.33;2.20;;;22.80;38.90;;;;;;10434928;28;20230;-72
2021/08/19 21:40:19;;;;;;;2.60;2.40;;;22.70;38.90;;;;;;10432676;28;20709;-71
2021/08/19 21:45:22;;;;;;;2.10;2.00;;;22.60;38.80;;;;;;10436022;28;20235;-72
2021/08/19 21:50:27;;;;;;;2.33;2.00;;;22.50;38.80;;;;;;10436474;28;20246;-72
2021/08/19 21:55:30;;;;;;;2.20;2.00;;;22.50;38.70;;;;;;10435672;28;20246;-72
2021/08/19 22:00:33;;;;;;;1.83;1.73;;;22.40;38.60;;;;;;10439113;28;20221;-72
2021/08/19 22:05:38;;;;;;;2.03;1.43;;;22.50;38.70;;;;;;10435718;28;20225;-72
2021/08/19 22:10:41;;;;;;;1.63;1.53;;;22.40;38.70;;;;;;10436941;28;20467;-72
2021/08/19 22:15:44;;;;;;;1.57;1.50;;;22.40;38.60;;;;;;10436272;28;20232;-72
2021/08/19 22:20:49;;;;;;;1.63;1.53;;;22.30;38.50;;;;;;10434158;28;20526;-72
2021/08/19 22:25:52;;;;;;;2.10;1.90;;;22.30;39.20;;;;;;10435033;28;20603;-72
2021/08/19 22:30:56;;;;;;;2.10;2.00;;;22.20;38.90;;;;;;10442181;28;20232;-71
2021/08/19 22:36:00;;;;;;;2.37;2.20;;;22.20;39.20;;;;;;10440797;28;20240;-72
2021/08/19 22:41:05;;;;;;;2.30;2.13;;;22.20;39.60;;;;;;10444897;28;20220;-72
2021/08/19 22:46:08;;;;;;;2.13;1.90;;;22.10;39.40;;;;;;10442847;28;20234;-72
2021/08/19 22:51:13;;;;;;;2.10;1.93;;;22.00;39.40;;;;;;10444343;28;20233;-72
2021/08/19 22:56:17;;;;;;;1.73;1.63;;;21.90;39.80;;;;;;10439980;28;20221;-72
2021/08/19 23:01:20;;;;;;;2.10;1.90;;;21.80;39.50;;;;;;10445392;28;20229;-72
2021/08/19 23:06:25;;;;;;;2.47;2.30;;;21.70;39.70;;;;;;10437034;28;20217;-72
2021/08/19 23:11:29;;;;;;;2.93;2.20;;;21.70;40.10;;;;;;10443400;28;20287;-71
2021/08/19 23:16:33;;;;;;;1.93;1.83;;;21.60;39.80;;;;;;10444975;28;20222;-72
2021/08/19 23:21:37;;;;;;;2.10;2.00;;;21.60;39.90;;;;;;10443120;28;20300;-72
2021/08/19 23:26:40;;;;;;;2.00;1.80;;;21.60;40.10;;;;;;10445202;28;20232;-72
2021/08/19 23:31:44;;;;;;;2.23;1.83;;;21.60;40.00;;;;;;10440319;28;20225;-72
2021/08/19 23:36:48;;;;;;;1.90;1.70;;;21.50;39.90;;;;;;10441298;28;20291;-71
2021/08/19 23:41:51;;;;;;;2.10;1.90;;;21.40;40.40;;;;;;10442741;28;20605;-72
2021/08/19 23:46:55;;;;;;;2.00;1.80;;;21.40;40.20;;;;;;10441032;28;20225;-72
2021/08/19 23:51:59;;;;;;;2.03;1.90;;;21.40;40.20;;;;;;10443462;28;20224;-72
2021/08/19 23:57:03;;;;;;;2.00;1.90;;;21.40;40.80;;;;;;10438716;28;20224;-72
